Terminal Aerodrome Forecast
Issued by NWS Mobile, AL

Home | Current Version | Previous Version | Text Only | Print | Product List | Glossary On
Versions: 1 2 3 4 5 6 7 8 9 10 11 12 13 14 15 16 17 18 19 20 21 22 23
000
FTUS44 KMOB 280533
TAFPNS
TAF
KPNS 280533Z 2806/2906 20010KT P6SM OVC008
      TEMPO 2808/2812 1SM BR OVC005
     FM281400 21006KT 4SM BR OVC015
     FM281600 18008G15KT P6SM BKN050
      TEMPO 2816/2819 BKN050
     FM282000 18010G17KT P6SM BKN050=

USA.gov is the U.S. government's official web portal to all federal, state and local government web resources and services.